Bowling Green, Illinois
Current Conditions -  °F | °C
As of 4:35 PM on Monday 22 Dec 2014 (Local Time) from K1H2 Reporting Station
Light Rain Light Rain  
Wind Chill: 41°   Ceiling: 500
Heat Index: 47°   Visibility: 4mi
Dew Point: 44°   Wind: 13mph
Humidity: 90%   Direction: 110°ESE
Pressure: 29.64"   Gusts: 20mph
Location:  39.2184°N, 88.9038°W
Report Text: K1H2 222235Z AUTO 11011G17KT 4SM -RA OVC005 08/07 A2964 RMK AO2 P0003 T00830068
Loading
Personal Weather Stations






























Interactive Weather Map New forecast layout! Learn more

10-Day Weather Forecast

Advertisements
Track Severe Weather on mobile